createdAt,value
2018-07-13T00:02:12.694Z,99.90
2018-07-13T00:04:41.032Z,99.90
2018-07-13T00:07:09.308Z,99.90
2018-07-13T00:09:37.630Z,99.90
2018-07-13T00:12:05.909Z,99.90
2018-07-13T00:14:34.146Z,99.90
2018-07-13T00:17:02.034Z,99.90
2018-07-13T00:19:30.252Z,99.90
2018-07-13T00:21:58.494Z,99.90
2018-07-13T00:24:26.728Z,99.90
2018-07-13T00:26:54.979Z,99.90
2018-07-13T00:29:23.240Z,99.90
2018-07-13T00:31:51.468Z,99.90
2018-07-13T00:34:19.669Z,99.90
2018-07-13T00:36:47.887Z,99.90
2018-07-13T00:39:16.112Z,99.90
2018-07-13T00:41:44.324Z,99.90
2018-07-13T00:44:12.525Z,99.90
2018-07-13T00:46:40.745Z,99.90
2018-07-13T00:49:08.928Z,99.90
2018-07-13T00:51:37.142Z,99.90
2018-07-13T00:54:05.376Z,99.90
2018-07-13T00:56:33.580Z,99.90
2018-07-13T00:59:01.801Z,99.90
2018-07-13T01:01:30.051Z,99.90
2018-07-13T01:03:58.235Z,99.90
2018-07-13T01:06:26.461Z,99.90
2018-07-13T01:08:54.667Z,99.90
2018-07-13T01:11:22.870Z,99.90
2018-07-13T01:13:51.268Z,99.90
2018-07-13T01:16:19.510Z,99.90
2018-07-13T01:18:47.728Z,99.90
2018-07-13T01:21:15.955Z,99.90
2018-07-13T01:23:44.185Z,99.90
2018-07-13T01:26:12.384Z,99.90
2018-07-13T01:28:40.612Z,99.90
2018-07-13T01:31:08.876Z,99.90
2018-07-13T01:33:37.087Z,99.90
2018-07-13T01:36:05.364Z,99.90
2018-07-13T01:38:33.572Z,99.90
2018-07-13T01:43:29.712Z,99.90
2018-07-13T01:45:57.925Z,99.90
2018-07-13T01:48:26.152Z,99.90
2018-07-13T01:50:54.390Z,99.90
2018-07-13T01:53:22.579Z,99.90
2018-07-13T01:55:50.808Z,99.90
2018-07-13T01:58:19.013Z,99.90
2018-07-13T02:00:47.215Z,99.90
2018-07-13T02:03:15.433Z,99.90
2018-07-13T02:05:43.654Z,99.90
2018-07-13T02:08:11.865Z,99.90
2018-07-13T02:10:40.088Z,99.90
2018-07-13T02:13:08.295Z,99.90
2018-07-13T02:18:04.680Z,99.90
2018-07-13T02:20:32.885Z,99.90
2018-07-13T02:23:01.098Z,99.90
2018-07-13T02:25:29.292Z,99.90
2018-07-13T02:27:57.543Z,99.90
2018-07-13T02:30:25.773Z,99.90
2018-07-13T02:32:54.009Z,99.90
2018-07-13T02:35:22.249Z,99.90
2018-07-13T02:37:50.463Z,99.90
2018-07-13T02:40:18.692Z,99.90
2018-07-13T02:42:46.937Z,99.90
2018-07-13T02:47:43.109Z,99.90
2018-07-13T02:50:11.329Z,99.90
2018-07-13T02:52:39.538Z,99.90
2018-07-13T02:55:07.771Z,99.90
2018-07-13T02:57:35.988Z,99.90
2018-07-13T03:00:04.264Z,99.90
2018-07-13T03:02:32.474Z,99.90
2018-07-13T03:05:00.709Z,99.90
2018-07-13T03:07:28.924Z,99.90
2018-07-13T03:09:57.145Z,99.90
2018-07-13T03:12:25.380Z,99.90
2018-07-13T03:14:53.579Z,99.90
2018-07-13T03:17:21.773Z,99.90
2018-07-13T03:19:50.045Z,99.90
2018-07-13T03:22:18.358Z,99.90
2018-07-13T03:24:46.473Z,99.90
2018-07-13T03:27:14.999Z,99.90
2018-07-13T03:29:43.188Z,99.90
2018-07-13T03:32:11.393Z,99.90
2018-07-13T03:34:39.634Z,99.90
2018-07-13T03:37:07.833Z,99.90
2018-07-13T03:39:36.067Z,99.90
2018-07-13T03:42:04.307Z,99.90
2018-07-13T03:44:32.565Z,99.90
2018-07-13T03:47:00.947Z,99.90
2018-07-13T03:49:29.208Z,99.90
2018-07-13T03:51:57.407Z,99.90
2018-07-13T03:54:25.710Z,99.90
2018-07-13T03:56:54.986Z,99.90
2018-07-13T03:59:23.160Z,99.90
2018-07-13T04:01:51.351Z,99.90
2018-07-13T04:04:19.683Z,99.90
2018-07-13T04:06:47.888Z,99.90
2018-07-13T04:09:16.127Z,99.90
2018-07-13T04:11:44.343Z,99.90
2018-07-13T04:14:12.565Z,99.90
2018-07-13T04:16:40.737Z,99.90
2018-07-13T04:19:08.940Z,99.90
2018-07-13T04:21:37.152Z,99.90
2018-07-13T04:24:05.555Z,99.90
2018-07-13T04:26:33.993Z,99.90
2018-07-13T04:29:02.210Z,99.90
2018-07-13T04:31:30.418Z,99.90
2018-07-13T04:33:58.663Z,99.90
2018-07-13T04:36:26.877Z,99.90
2018-07-13T04:38:55.088Z,99.90
2018-07-13T04:41:23.991Z,99.90
2018-07-13T04:43:52.449Z,99.90
2018-07-13T04:46:20.703Z,99.90
2018-07-13T04:48:48.988Z,99.90
2018-07-13T04:51:17.241Z,99.90
2018-07-13T04:53:45.460Z,99.90
2018-07-13T04:56:13.742Z,99.90
2018-07-13T04:58:42.014Z,99.90
2018-07-13T05:01:10.264Z,99.90
2018-07-13T05:03:38.479Z,99.90
2018-07-13T05:06:06.790Z,99.90
2018-07-13T05:08:34.945Z,99.90
2018-07-13T05:11:03.236Z,99.90
2018-07-13T05:13:31.480Z,99.90
2018-07-13T05:15:59.746Z,99.90
2018-07-13T05:18:27.996Z,99.90
2018-07-13T05:20:56.406Z,99.90
2018-07-13T05:23:25.295Z,99.90
2018-07-13T05:25:53.541Z,99.90
2018-07-13T05:28:21.832Z,99.90
2018-07-13T05:30:50.166Z,99.90
2018-07-13T05:33:19.048Z,99.90
2018-07-13T05:35:47.270Z,99.90
2018-07-13T05:38:15.561Z,99.90
2018-07-13T05:40:43.892Z,99.90
2018-07-13T05:43:12.105Z,99.90
2018-07-13T05:45:40.312Z,99.90
2018-07-13T05:48:08.603Z,99.90
2018-07-13T05:50:36.831Z,99.90
2018-07-13T05:53:05.086Z,99.90
2018-07-13T05:55:33.344Z,99.90
2018-07-13T05:58:01.601Z,99.90
2018-07-13T06:00:30.061Z,99.90
2018-07-13T06:02:58.376Z,99.90
2018-07-13T06:05:27.316Z,99.90
2018-07-13T06:07:55.605Z,99.90
2018-07-13T06:10:24.453Z,99.90
2018-07-13T06:12:52.700Z,99.90
2018-07-13T06:15:20.901Z,99.90
2018-07-13T06:17:49.123Z,99.90
2018-07-13T06:20:17.362Z,99.90
2018-07-13T06:22:45.525Z,99.90
2018-07-13T06:25:13.819Z,99.90
2018-07-13T06:27:42.063Z,99.90
2018-07-13T06:30:10.360Z,99.90
2018-07-13T06:32:38.588Z,99.90
2018-07-13T06:35:06.796Z,99.90
2018-07-13T06:37:35.026Z,99.90
2018-07-13T06:40:03.334Z,99.90
2018-07-13T06:42:31.554Z,99.90
2018-07-13T06:45:00.013Z,99.90
2018-07-13T06:47:28.306Z,99.90
2018-07-13T06:49:56.539Z,99.90
2018-07-13T06:52:24.760Z,99.90
2018-07-13T06:54:53.017Z,99.90
2018-07-13T06:57:32.460Z,99.90
2018-07-13T07:00:01.330Z,99.90
2018-07-13T07:02:39.710Z,99.90
2018-07-13T07:06:22.762Z,99.90
2018-07-13T07:08:51.096Z,99.90
2018-07-13T07:11:19.368Z,99.90
2018-07-13T07:13:47.969Z,99.20
2018-07-13T07:16:16.201Z,99.90
2018-07-13T07:18:44.406Z,99.10
2018-07-13T07:21:12.633Z,98.40
2018-07-13T07:23:40.846Z,98.10
2018-07-13T07:26:09.229Z,96.30
2018-07-13T07:28:37.460Z,95.00
2018-07-13T07:31:05.679Z,94.40
2018-07-13T07:33:33.917Z,95.30
2018-07-13T07:36:02.152Z,95.80
2018-07-13T07:38:30.505Z,96.00
2018-07-13T07:40:58.657Z,96.30
2018-07-13T07:43:26.920Z,94.70
2018-07-13T07:45:55.167Z,93.30
2018-07-13T07:48:24.129Z,92.90
2018-07-13T07:50:52.371Z,92.40
2018-07-13T07:53:20.633Z,92.30
2018-07-13T07:55:48.883Z,91.40
2018-07-13T07:58:17.109Z,90.10
2018-07-13T08:00:45.296Z,86.00
2018-07-13T08:03:13.524Z,86.80
2018-07-13T08:05:41.755Z,90.20
2018-07-13T08:08:09.983Z,58.90
2018-07-13T08:10:38.208Z,57.90
2018-07-13T08:13:06.586Z,45.20
2018-07-13T08:15:34.923Z,40.70
2018-07-13T08:18:03.128Z,38.90
2018-07-13T08:20:33.626Z,36.00
2018-07-13T08:23:05.235Z,39.70
2018-07-13T08:25:33.456Z,38.20
2018-07-13T08:28:02.619Z,40.70
2018-07-13T08:30:39.956Z,39.60
2018-07-13T08:33:08.148Z,38.60
2018-07-13T08:35:36.356Z,33.70
2018-07-13T08:38:05.092Z,33.70
2018-07-13T08:40:33.326Z,30.40
2018-07-13T08:43:01.548Z,28.80
2018-07-13T08:45:29.873Z,29.20
2018-07-13T08:47:58.220Z,29.10
2018-07-13T08:50:26.480Z,29.00
2018-07-13T08:52:57.224Z,28.70
2018-07-13T08:55:25.479Z,28.20
2018-07-13T08:57:53.711Z,27.80
2018-07-13T09:00:21.967Z,34.10
2018-07-13T09:02:50.201Z,30.30
2018-07-13T09:05:18.417Z,29.50
2018-07-13T09:07:46.659Z,26.60
2018-07-13T09:10:14.972Z,28.00
2018-07-13T09:12:43.242Z,25.90
2018-07-13T09:15:13.005Z,26.30
2018-07-13T09:17:41.216Z,25.60
2018-07-13T09:20:11.149Z,25.30
2018-07-13T09:22:39.511Z,24.50
2018-07-13T09:25:08.356Z,24.10
2018-07-13T09:27:36.569Z,24.70
2018-07-13T09:30:05.288Z,26.30
2018-07-13T09:32:33.491Z,25.00
2018-07-13T09:35:01.701Z,23.90
2018-07-13T09:37:29.987Z,23.70
2018-07-13T09:39:58.217Z,24.10
2018-07-13T09:42:26.443Z,23.00
2018-07-13T09:44:54.650Z,23.80
2018-07-13T09:47:22.864Z,23.80
2018-07-13T09:49:51.097Z,23.70
2018-07-13T09:52:19.369Z,27.90
2018-07-13T09:54:47.569Z,25.90
2018-07-13T09:57:15.743Z,24.60
2018-07-13T09:59:43.952Z,25.30
2018-07-13T10:02:12.170Z,22.00
2018-07-13T10:04:40.370Z,23.10
2018-07-13T10:07:08.662Z,22.00
2018-07-13T10:09:36.864Z,23.40
2018-07-13T10:12:05.163Z,26.60
2018-07-13T10:14:33.578Z,25.40
2018-07-13T10:17:01.883Z,26.60
2018-07-13T10:19:30.133Z,24.00
2018-07-13T10:21:58.552Z,23.80
2018-07-13T10:24:27.257Z,22.90
2018-07-13T10:26:55.672Z,25.40
2018-07-13T10:29:31.773Z,23.90
2018-07-13T10:32:00.825Z,24.70
2018-07-13T10:34:29.066Z,23.90
2018-07-13T10:36:59.696Z,23.70
2018-07-13T10:39:27.892Z,25.50
2018-07-13T10:41:56.137Z,25.40
2018-07-13T10:44:24.489Z,27.30
2018-07-13T10:46:53.120Z,26.30
2018-07-13T10:49:21.329Z,26.70
2018-07-13T10:51:50.164Z,28.10
2018-07-13T10:54:18.360Z,30.70
2018-07-13T10:56:46.625Z,29.00
2018-07-13T10:59:14.957Z,30.70
2018-07-13T11:01:43.162Z,29.40
2018-07-13T11:04:12.760Z,30.30
2018-07-13T11:06:41.078Z,30.50
2018-07-13T11:09:10.250Z,31.00
2018-07-13T11:11:38.834Z,31.00
2018-07-13T11:14:07.262Z,34.30
2018-07-13T11:16:35.552Z,34.20
2018-07-13T11:19:03.755Z,36.60
2018-07-13T11:21:31.965Z,36.00
2018-07-13T11:24:00.197Z,37.80
2018-07-13T11:26:28.425Z,38.00
2018-07-13T11:28:56.652Z,38.30
2018-07-13T11:31:24.858Z,39.60
2018-07-13T11:33:53.079Z,42.30
2018-07-13T11:36:21.313Z,44.90
2018-07-13T11:38:49.578Z,41.00
2018-07-13T11:41:17.824Z,42.00
2018-07-13T11:43:46.055Z,42.80
2018-07-13T11:46:14.336Z,44.00
2018-07-13T11:48:42.595Z,41.10
2018-07-13T11:51:11.283Z,44.20
2018-07-13T11:53:39.728Z,43.70
2018-07-13T11:56:08.066Z,42.20
2018-07-13T11:58:36.336Z,43.00
2018-07-13T12:01:04.754Z,43.70
2018-07-13T12:03:33.365Z,43.20
2018-07-13T12:06:02.336Z,44.80
2018-07-13T12:08:31.320Z,42.90
2018-07-13T12:10:59.558Z,44.90
2018-07-13T12:15:55.733Z,43.90
2018-07-13T12:18:23.948Z,42.90
2018-07-13T12:20:52.185Z,41.40
2018-07-13T12:23:20.421Z,41.40
2018-07-13T12:25:48.633Z,43.10
2018-07-13T12:28:17.102Z,41.40
2018-07-13T12:30:48.128Z,41.80
2018-07-13T12:33:16.375Z,43.90
2018-07-13T12:35:45.933Z,42.10
2018-07-13T12:38:15.925Z,41.90
2018-07-13T12:40:44.140Z,42.40
2018-07-13T12:43:12.420Z,46.10
2018-07-13T12:45:40.665Z,45.20
2018-07-13T12:48:08.825Z,47.20
2018-07-13T12:50:36.970Z,46.10
2018-07-13T12:53:05.893Z,46.50
2018-07-13T12:55:34.128Z,42.50
2018-07-13T13:00:30.436Z,42.60
2018-07-13T13:02:58.644Z,42.20
2018-07-13T13:05:26.893Z,41.80
2018-07-13T13:07:55.075Z,43.70
2018-07-13T13:10:23.312Z,43.00
2018-07-13T13:12:51.484Z,42.30
2018-07-13T13:15:20.958Z,44.00
2018-07-13T13:17:49.155Z,43.60
2018-07-13T13:20:17.349Z,45.10
2018-07-13T13:22:45.551Z,44.70
2018-07-13T13:25:14.839Z,47.00
2018-07-13T13:27:44.306Z,46.30
2018-07-13T13:30:12.687Z,45.50
2018-07-13T13:32:43.908Z,46.20
2018-07-13T13:35:12.184Z,46.10
2018-07-13T13:37:41.250Z,48.30
2018-07-13T13:40:09.459Z,44.00
2018-07-13T13:42:37.698Z,45.90
2018-07-13T13:45:05.921Z,45.60
2018-07-13T13:47:34.126Z,45.90
2018-07-13T13:50:02.325Z,46.50
2018-07-13T13:52:32.446Z,44.50
2018-07-13T13:55:01.564Z,48.00
2018-07-13T13:57:30.248Z,45.50
2018-07-13T14:00:01.434Z,46.30
2018-07-13T14:02:29.665Z,44.90
2018-07-13T14:04:57.897Z,42.70
2018-07-13T14:07:26.231Z,42.80
2018-07-13T14:09:54.487Z,42.30
2018-07-13T14:12:22.911Z,40.00
2018-07-13T14:14:51.380Z,40.20
2018-07-13T14:17:21.951Z,39.30
2018-07-13T14:19:50.169Z,38.70
2018-07-13T14:22:18.399Z,41.60
2018-07-13T14:24:46.645Z,41.20
2018-07-13T14:27:14.878Z,42.10
2018-07-13T14:29:43.133Z,44.10
2018-07-13T14:32:11.378Z,42.40
2018-07-13T14:34:39.659Z,42.80
2018-07-13T14:37:07.863Z,43.10
2018-07-13T14:39:36.097Z,43.70
2018-07-13T14:42:04.321Z,42.70
2018-07-13T14:44:32.501Z,41.10
2018-07-13T14:47:00.728Z,44.80
2018-07-13T14:49:28.816Z,44.10
2018-07-13T14:51:57.042Z,43.70
2018-07-13T14:54:25.187Z,46.40
2018-07-13T14:56:53.754Z,46.00
2018-07-13T14:59:21.933Z,47.30
2018-07-13T15:01:50.113Z,47.20
2018-07-13T15:04:18.393Z,47.50
2018-07-13T15:06:46.942Z,47.70
2018-07-13T15:09:15.365Z,46.10
2018-07-13T15:11:45.824Z,46.50
2018-07-13T15:14:14.000Z,44.00
2018-07-13T15:16:42.552Z,46.30
2018-07-13T15:19:10.720Z,46.10
2018-07-13T15:21:38.885Z,45.60
2018-07-13T15:24:07.032Z,47.20
2018-07-13T15:26:35.208Z,48.40
2018-07-13T15:29:03.372Z,48.90
2018-07-13T15:31:31.521Z,49.20
2018-07-13T15:33:59.664Z,48.60
2018-07-13T15:36:27.813Z,49.10
2018-07-13T15:38:56.000Z,49.00
2018-07-13T15:41:24.150Z,47.60
2018-07-13T15:43:52.324Z,48.00
2018-07-13T15:46:20.757Z,49.10
2018-07-13T15:48:49.173Z,47.70
2018-07-13T15:51:17.360Z,46.80
2018-07-13T15:53:45.517Z,46.40
2018-07-13T15:56:13.664Z,48.90
2018-07-13T15:58:41.845Z,47.80
2018-07-13T16:01:09.976Z,48.30
2018-07-13T16:03:38.128Z,47.70
2018-07-13T16:06:06.280Z,48.40
2018-07-13T16:08:34.444Z,44.30
2018-07-13T16:11:02.633Z,47.40
2018-07-13T16:13:30.785Z,47.70
2018-07-13T16:15:59.012Z,48.10
2018-07-13T16:18:27.173Z,48.70
2018-07-13T16:20:55.477Z,48.20
2018-07-13T16:23:25.005Z,48.80
2018-07-13T16:25:53.224Z,49.30
2018-07-13T16:28:21.863Z,48.60
2018-07-13T16:30:49.924Z,49.00
2018-07-13T16:33:20.104Z,49.40
2018-07-13T16:35:48.271Z,50.00
2018-07-13T16:38:16.440Z,50.10
2018-07-13T16:43:12.524Z,49.30
2018-07-13T16:45:41.045Z,49.90
2018-07-13T16:48:11.155Z,50.00
2018-07-13T16:50:40.805Z,50.30
2018-07-13T16:53:08.832Z,50.70
2018-07-13T16:55:37.004Z,50.90
2018-07-13T16:58:05.172Z,51.50
2018-07-13T17:00:33.350Z,51.10
2018-07-13T17:03:01.539Z,52.50
2018-07-13T17:05:29.688Z,52.30
2018-07-13T17:07:57.884Z,52.10
2018-07-13T17:10:26.176Z,52.40
2018-07-13T17:12:54.359Z,52.10
2018-07-13T17:15:22.551Z,52.20
2018-07-13T17:17:50.712Z,52.10
2018-07-13T17:20:18.987Z,51.20
2018-07-13T17:22:47.064Z,51.90
2018-07-13T17:25:15.283Z,50.30
2018-07-13T17:27:43.452Z,51.60
2018-07-13T17:30:11.835Z,52.10
2018-07-13T17:32:39.997Z,51.80
2018-07-13T17:35:08.197Z,52.10
2018-07-13T17:37:37.160Z,52.50
2018-07-13T17:40:05.494Z,51.70
2018-07-13T17:42:33.684Z,52.20
2018-07-13T17:45:01.816Z,52.80
2018-07-13T17:47:30.088Z,52.10
2018-07-13T17:49:58.244Z,53.00
2018-07-13T17:52:26.386Z,53.50
2018-07-13T17:54:56.773Z,53.90
2018-07-13T17:57:24.924Z,54.90
2018-07-13T17:59:53.068Z,54.90
2018-07-13T18:02:21.227Z,54.70
2018-07-13T18:04:49.648Z,54.80
2018-07-13T18:07:17.854Z,55.50
2018-07-13T18:09:46.274Z,55.80
2018-07-13T18:12:14.432Z,55.00
2018-07-13T18:14:42.599Z,55.50
2018-07-13T18:17:11.930Z,55.90
2018-07-13T18:19:40.088Z,56.00
2018-07-13T18:22:08.274Z,56.30
2018-07-13T18:24:36.855Z,56.30
2018-07-13T18:27:06.390Z,56.30
2018-07-13T18:29:35.157Z,56.30
2018-07-13T18:32:03.442Z,56.50
2018-07-13T18:34:31.588Z,56.70
2018-07-13T18:36:59.928Z,56.80
2018-07-13T18:39:28.317Z,57.00
2018-07-13T18:42:00.677Z,56.90
2018-07-13T18:44:28.994Z,57.30
2018-07-13T18:46:57.319Z,56.60
2018-07-13T18:49:26.149Z,57.60
2018-07-13T18:51:54.493Z,56.70
2018-07-13T18:54:22.784Z,57.30
2018-07-13T18:56:53.861Z,57.40
2018-07-13T18:59:22.939Z,58.20
2018-07-13T19:01:51.500Z,59.30
2018-07-13T19:04:19.681Z,59.40
2018-07-13T19:06:47.916Z,59.60
2018-07-13T19:09:16.781Z,58.70
2018-07-13T19:11:44.921Z,59.60
2018-07-13T19:14:13.072Z,59.50
2018-07-13T19:16:41.260Z,59.80
2018-07-13T19:19:09.509Z,60.20
2018-07-13T19:21:38.885Z,60.50
2018-07-13T19:24:07.121Z,60.80
2018-07-13T19:26:35.602Z,61.10
2018-07-13T19:29:03.804Z,62.30
2018-07-13T19:31:32.022Z,63.40
2018-07-13T19:34:00.261Z,65.30
2018-07-13T19:36:28.519Z,65.40
2018-07-13T19:39:00.285Z,66.10
2018-07-13T19:41:28.510Z,67.70
2018-07-13T19:43:56.948Z,68.50
2018-07-13T19:46:25.170Z,69.60
2018-07-13T19:48:53.386Z,71.10
2018-07-13T19:51:21.636Z,72.30
2018-07-13T19:53:49.881Z,75.70
2018-07-13T19:56:18.123Z,75.50
2018-07-13T19:58:46.421Z,75.90
2018-07-13T20:01:14.714Z,75.60
2018-07-13T20:03:43.205Z,76.60
2018-07-13T20:06:11.442Z,79.80
2018-07-13T20:08:39.699Z,80.70
2018-07-13T20:11:12.205Z,83.20
2018-07-13T20:13:40.429Z,85.40
2018-07-13T20:16:14.607Z,86.80
2018-07-13T20:18:45.264Z,87.10
2018-07-13T20:21:14.496Z,88.70
2018-07-13T20:23:42.749Z,89.20
2018-07-13T20:26:12.831Z,90.00
2018-07-13T20:28:41.202Z,90.20
2018-07-13T20:31:10.356Z,90.20
2018-07-13T20:33:38.738Z,90.10
2018-07-13T20:36:07.002Z,90.50
2018-07-13T20:38:35.248Z,91.10
2018-07-13T20:41:03.513Z,91.50
2018-07-13T20:43:31.788Z,91.20
2018-07-13T20:48:28.819Z,91.70
2018-07-13T20:50:57.296Z,91.50
2018-07-13T20:53:25.531Z,91.50
2018-07-13T20:55:53.762Z,91.70
2018-07-13T20:58:22.030Z,92.20
2018-07-13T21:00:53.921Z,92.90
2018-07-13T21:03:26.152Z,93.00
2018-07-13T21:05:54.461Z,92.80
2018-07-13T21:08:23.264Z,92.30
2018-07-13T21:10:51.598Z,92.30
2018-07-13T21:13:19.982Z,93.10
2018-07-13T21:15:48.209Z,93.80
2018-07-13T21:18:16.472Z,94.20
2018-07-13T21:20:47.486Z,94.70
2018-07-13T21:25:44.437Z,94.40
2018-07-13T21:28:12.742Z,94.70
2018-07-13T21:30:41.170Z,95.30
2018-07-13T21:33:13.633Z,95.30
2018-07-13T21:35:41.895Z,95.60
2018-07-13T21:38:10.172Z,96.20
2018-07-13T21:40:38.447Z,96.30
2018-07-13T21:43:06.692Z,95.80
2018-07-13T21:45:34.938Z,95.60
2018-07-13T21:48:03.149Z,96.20
2018-07-13T21:50:31.468Z,96.10
2018-07-13T21:52:59.728Z,96.50
2018-07-13T21:55:28.067Z,96.70
2018-07-13T21:57:56.292Z,96.70
2018-07-13T22:00:24.569Z,96.50
2018-07-13T22:02:53.007Z,97.00
2018-07-13T22:05:21.170Z,97.10
2018-07-13T22:07:49.364Z,97.20
2018-07-13T22:10:17.593Z,97.20
2018-07-13T22:12:45.824Z,97.30
2018-07-13T22:15:14.041Z,97.20
2018-07-13T22:17:42.276Z,97.20
2018-07-13T22:20:10.449Z,96.90
2018-07-13T22:22:38.696Z,96.50
2018-07-13T22:25:06.925Z,95.50
2018-07-13T22:27:35.153Z,95.20
2018-07-13T22:30:03.383Z,95.00
2018-07-13T22:32:31.676Z,95.00
2018-07-13T22:34:59.897Z,95.20
2018-07-13T22:37:28.137Z,94.90
2018-07-13T22:39:56.353Z,94.90
2018-07-13T22:42:24.556Z,95.10
2018-07-13T22:44:52.814Z,95.40
2018-07-13T22:47:21.179Z,95.10
2018-07-13T22:49:49.376Z,95.10
2018-07-13T22:52:17.637Z,94.80
2018-07-13T22:54:45.880Z,94.80
2018-07-13T22:57:14.109Z,95.20
2018-07-13T22:59:42.325Z,94.80
2018-07-13T23:02:10.551Z,95.00
2018-07-13T23:04:38.758Z,95.70
2018-07-13T23:12:02.909Z,95.60
2018-07-13T23:14:31.123Z,95.90
2018-07-13T23:16:59.356Z,96.30
2018-07-13T23:19:27.543Z,96.00
2018-07-13T23:21:55.765Z,96.00
2018-07-13T23:24:24.022Z,95.80
2018-07-13T23:26:52.245Z,96.40
2018-07-13T23:29:20.453Z,96.40
2018-07-13T23:31:48.738Z,96.60
2018-07-13T23:34:29.013Z,97.20
2018-07-13T23:36:57.237Z,97.20
2018-07-13T23:39:25.462Z,97.70
2018-07-13T23:41:53.678Z,98.40
2018-07-13T23:44:21.909Z,98.60
2018-07-13T23:46:50.140Z,98.70
2018-07-13T23:49:18.389Z,98.60
2018-07-13T23:51:46.632Z,98.80
2018-07-13T23:54:14.926Z,98.80
2018-07-13T23:56:43.125Z,98.50
2018-07-13T23:59:11.381Z,98.50
